createdAt,value
2016-08-25T00:00:49.191Z,0
2016-08-25T00:01:49.192Z,0
2016-08-25T00:02:49.181Z,0
2016-08-25T00:03:49.280Z,0
2016-08-25T00:04:49.216Z,0
2016-08-25T00:05:49.744Z,0
2016-08-25T00:06:49.202Z,0
2016-08-25T00:07:49.175Z,0
2016-08-25T00:08:49.268Z,0
2016-08-25T00:09:49.202Z,0
2016-08-25T00:10:49.146Z,0
2016-08-25T00:11:49.169Z,0
2016-08-25T00:12:49.171Z,0
2016-08-25T00:13:49.174Z,0
2016-08-25T00:14:49.182Z,0
2016-08-25T00:15:49.199Z,0
2016-08-25T00:16:49.161Z,0
2016-08-25T00:17:49.221Z,0
2016-08-25T00:18:49.160Z,0
2016-08-25T00:19:49.145Z,0
2016-08-25T00:20:49.182Z,0
2016-08-25T00:21:49.162Z,0
2016-08-25T00:22:49.236Z,0
2016-08-25T00:23:49.165Z,0
2016-08-25T00:24:49.147Z,0
2016-08-25T00:25:49.155Z,0
2016-08-25T00:26:49.133Z,0
2016-08-25T00:27:49.104Z,0
2016-08-25T00:28:49.644Z,0
2016-08-25T00:29:49.187Z,0
2016-08-25T00:30:49.163Z,0
2016-08-25T00:31:49.131Z,0
2016-08-25T00:32:49.163Z,0
2016-08-25T00:33:49.145Z,0
2016-08-25T00:34:49.166Z,0
2016-08-25T00:35:49.119Z,0
2016-08-25T00:36:49.095Z,0
2016-08-25T00:37:49.099Z,0
2016-08-25T00:38:49.077Z,0
2016-08-25T00:39:49.083Z,0
2016-08-25T00:40:49.099Z,0
2016-08-25T00:41:49.187Z,0
2016-08-25T00:42:49.607Z,0
2016-08-25T00:43:49.144Z,0
2016-08-25T00:44:49.079Z,0
2016-08-25T00:45:49.135Z,0
2016-08-25T00:46:49.134Z,0
2016-08-25T00:47:49.252Z,0
2016-08-25T00:48:49.135Z,0
2016-08-25T00:49:49.053Z,0
2016-08-25T00:50:49.553Z,0
2016-08-25T00:51:49.146Z,0
2016-08-25T00:52:49.157Z,0
2016-08-25T00:53:49.116Z,0
2016-08-25T00:54:49.122Z,0
2016-08-25T00:55:49.128Z,0
2016-08-25T00:56:49.126Z,0
2016-08-25T00:57:49.166Z,0
2016-08-25T00:58:49.156Z,0
2016-08-25T00:59:49.137Z,0
2016-08-25T01:00:49.095Z,0
2016-08-25T01:01:49.149Z,0
2016-08-25T01:02:49.083Z,0
2016-08-25T01:03:49.110Z,0
2016-08-25T01:04:49.101Z,0
2016-08-25T01:05:49.120Z,0
2016-08-25T01:06:49.098Z,0
2016-08-25T01:07:49.581Z,0
2016-08-25T01:08:49.129Z,0
2016-08-25T01:09:49.067Z,0
2016-08-25T01:10:49.084Z,0
2016-08-25T01:11:49.134Z,0
2016-08-25T01:12:48.974Z,0
2016-08-25T01:13:49.085Z,0
2016-08-25T01:14:49.523Z,0
2016-08-25T01:15:49.050Z,0
2016-08-25T01:16:49.082Z,0
2016-08-25T01:17:49.100Z,0
2016-08-25T01:18:49.127Z,0
2016-08-25T01:19:49.093Z,0
2016-08-25T01:20:49.062Z,0
2016-08-25T01:21:49.054Z,0
2016-08-25T01:22:48.917Z,0
2016-08-25T01:23:48.920Z,0
2016-08-25T01:24:49.644Z,0
2016-08-25T01:25:49.008Z,0
2016-08-25T01:26:49.035Z,0
2016-08-25T01:27:49.061Z,0
2016-08-25T01:28:49.020Z,0
2016-08-25T01:29:49.039Z,0
2016-08-25T01:30:49.048Z,0
2016-08-25T01:31:49.112Z,0
2016-08-25T01:32:48.899Z,0
2016-08-25T01:33:49.094Z,0
2016-08-25T01:34:48.879Z,0
2016-08-25T01:35:48.891Z,0
2016-08-25T01:36:48.925Z,0
2016-08-25T01:37:49.047Z,0
2016-08-25T01:38:48.863Z,0
2016-08-25T01:39:49.283Z,0
2016-08-25T01:40:49.008Z,0
2016-08-25T01:41:49.595Z,0
2016-08-25T01:42:48.887Z,0
2016-08-25T01:43:49.025Z,0
2016-08-25T01:44:48.893Z,0
2016-08-25T01:45:48.896Z,0
2016-08-25T01:46:48.874Z,0
2016-08-25T01:47:48.881Z,0
2016-08-25T01:48:48.872Z,0
2016-08-25T01:49:48.879Z,0
2016-08-25T01:50:48.847Z,0
2016-08-25T01:51:48.878Z,0
2016-08-25T01:52:48.872Z,0
2016-08-25T01:53:49.626Z,0
2016-08-25T01:54:48.846Z,0
2016-08-25T01:55:49.331Z,0
2016-08-25T01:56:48.849Z,0
2016-08-25T01:57:48.873Z,0
2016-08-25T01:58:48.842Z,0
2016-08-25T01:59:48.839Z,0
2016-08-25T02:00:49.411Z,0
2016-08-25T02:01:48.706Z,0
2016-08-25T02:02:48.836Z,0
2016-08-25T02:03:48.832Z,0
2016-08-25T02:04:48.831Z,0
2016-08-25T02:05:48.690Z,0
2016-08-25T02:06:48.701Z,0
2016-08-25T02:07:48.698Z,0
2016-08-25T02:08:48.687Z,0
2016-08-25T02:09:48.683Z,0
2016-08-25T02:10:48.671Z,0
2016-08-25T02:11:48.684Z,0
2016-08-25T02:12:48.681Z,0
2016-08-25T02:13:48.724Z,0
2016-08-25T02:14:48.690Z,0
2016-08-25T02:15:48.674Z,0
2016-08-25T02:16:48.666Z,0
2016-08-25T02:17:48.666Z,0
2016-08-25T02:18:48.667Z,0
2016-08-25T02:19:49.262Z,0
2016-08-25T02:20:48.661Z,0
2016-08-25T02:21:48.658Z,0
2016-08-25T02:22:48.655Z,0
2016-08-25T02:23:48.684Z,0
2016-08-25T02:24:48.518Z,0
2016-08-25T02:25:48.652Z,0
2016-08-25T02:26:48.518Z,0
2016-08-25T02:27:48.644Z,0
2016-08-25T02:28:48.647Z,0
2016-08-25T02:29:48.681Z,0
2016-08-25T02:30:48.525Z,0
2016-08-25T02:31:48.509Z,0
2016-08-25T02:32:48.512Z,0
2016-08-25T02:33:48.497Z,0
2016-08-25T02:34:48.481Z,0
2016-08-25T02:35:48.527Z,0
2016-08-25T02:36:48.493Z,0
2016-08-25T02:37:48.486Z,0
2016-08-25T02:38:48.474Z,0
2016-08-25T02:39:48.492Z,0
2016-08-25T02:40:48.489Z,0
2016-08-25T02:41:48.469Z,0
2016-08-25T02:42:48.451Z,0
2016-08-25T02:43:49.198Z,0
2016-08-25T02:44:48.448Z,0
2016-08-25T02:45:49.169Z,0
2016-08-25T02:46:48.451Z,0
2016-08-25T02:47:49.154Z,0
2016-08-25T02:48:48.430Z,0
2016-08-25T02:49:48.424Z,0
2016-08-25T02:50:48.458Z,0
2016-08-25T02:51:49.147Z,0
2016-08-25T02:52:48.426Z,0
2016-08-25T02:53:48.434Z,0
2016-08-25T02:54:48.421Z,0
2016-08-25T02:55:48.421Z,0
2016-08-25T02:56:48.418Z,0
2016-08-25T02:57:48.422Z,0
2016-08-25T02:58:48.406Z,0
2016-08-25T02:59:48.410Z,0
2016-08-25T03:00:48.383Z,0
2016-08-25T03:01:48.425Z,0
2016-08-25T03:02:48.418Z,0
2016-08-25T03:03:48.408Z,0
2016-08-25T03:04:48.379Z,0
2016-08-25T03:05:48.384Z,0
2016-08-25T03:06:48.377Z,0
2016-08-25T03:07:48.365Z,0
2016-08-25T03:08:48.357Z,0
2016-08-25T03:09:48.420Z,0
2016-08-25T03:10:48.344Z,0
2016-08-25T03:11:49.118Z,0
2016-08-25T03:12:48.333Z,0
2016-08-25T03:13:48.357Z,0
2016-08-25T03:14:48.387Z,0
2016-08-25T03:15:49.132Z,0
2016-08-25T03:16:48.337Z,0
2016-08-25T03:17:48.327Z,0
2016-08-25T03:18:48.338Z,0
2016-08-25T03:19:48.353Z,0
2016-08-25T03:20:49.059Z,0
2016-08-25T03:21:48.416Z,0
2016-08-25T03:22:48.323Z,0
2016-08-25T03:23:48.292Z,0
2016-08-25T03:24:49.099Z,0
2016-08-25T03:25:48.337Z,0
2016-08-25T03:26:48.296Z,0
2016-08-25T03:27:48.288Z,0
2016-08-25T03:28:48.308Z,0
2016-08-25T03:29:48.294Z,0
2016-08-25T03:30:48.333Z,0
2016-08-25T03:31:48.265Z,0
2016-08-25T03:32:48.263Z,0
2016-08-25T03:33:48.273Z,0
2016-08-25T03:34:48.281Z,0
2016-08-25T03:35:48.259Z,0
2016-08-25T03:36:48.275Z,0
2016-08-25T03:37:48.260Z,0
2016-08-25T03:38:48.247Z,0
2016-08-25T03:39:48.223Z,0
2016-08-25T03:40:48.257Z,0
2016-08-25T03:41:48.240Z,0
2016-08-25T03:42:48.211Z,0
2016-08-25T03:43:48.208Z,4
2016-08-25T03:44:48.214Z,0
2016-08-25T03:45:49.036Z,0
2016-08-25T03:46:48.206Z,4
2016-08-25T03:47:48.202Z,0
2016-08-25T03:48:48.949Z,4
2016-08-25T03:49:48.181Z,4
2016-08-25T03:50:48.343Z,8
2016-08-25T03:51:48.190Z,8
2016-08-25T03:52:48.179Z,8
2016-08-25T03:53:48.206Z,12
2016-08-25T03:54:48.183Z,12
2016-08-25T03:55:48.283Z,12
2016-08-25T03:56:48.950Z,16
2016-08-25T03:57:48.157Z,16
2016-08-25T03:58:48.147Z,24
2016-08-25T03:59:48.274Z,28
2016-08-25T04:00:48.149Z,32
2016-08-25T04:01:48.134Z,36
2016-08-25T04:02:48.138Z,36
2016-08-25T04:03:48.176Z,44
2016-08-25T04:04:48.128Z,48
2016-08-25T04:05:48.140Z,56
2016-08-25T04:06:48.131Z,60
2016-08-25T04:07:48.113Z,68
2016-08-25T04:08:48.141Z,80
2016-08-25T04:09:48.128Z,88
2016-08-25T04:10:48.133Z,96
2016-08-25T04:11:48.103Z,104
2016-08-25T04:12:48.129Z,116
2016-08-25T04:13:48.116Z,128
2016-08-25T04:14:48.098Z,140
2016-08-25T04:15:49.011Z,148
2016-08-25T04:16:48.093Z,160
2016-08-25T04:17:48.073Z,176
2016-08-25T04:18:48.059Z,192
2016-08-25T04:19:48.062Z,204
2016-08-25T04:20:48.071Z,220
2016-08-25T04:21:48.044Z,232
2016-08-25T04:22:48.078Z,248
2016-08-25T04:23:48.951Z,264
2016-08-25T04:24:48.046Z,276
2016-08-25T04:25:48.056Z,292
2016-08-25T04:26:48.773Z,308
2016-08-25T04:27:48.014Z,324
2016-08-25T04:28:48.059Z,336
2016-08-25T04:29:48.063Z,352
2016-08-25T04:30:48.082Z,368
2016-08-25T04:31:48.209Z,384
2016-08-25T04:32:48.016Z,400
2016-08-25T04:33:47.992Z,412
2016-08-25T04:34:47.999Z,428
2016-08-25T04:35:48.005Z,440
2016-08-25T04:36:48.003Z,456
2016-08-25T04:37:47.993Z,472
2016-08-25T04:38:48.003Z,488
2016-08-25T04:39:47.993Z,504
2016-08-25T04:40:47.985Z,516
2016-08-25T04:41:47.977Z,532
2016-08-25T04:42:47.980Z,540
2016-08-25T04:43:47.978Z,556
2016-08-25T04:44:47.967Z,572
2016-08-25T04:45:47.942Z,584
2016-08-25T04:46:47.935Z,592
2016-08-25T04:47:47.925Z,604
2016-08-25T04:48:47.940Z,616
2016-08-25T04:49:47.951Z,632
2016-08-25T04:50:47.924Z,644
2016-08-25T04:51:47.913Z,656
2016-08-25T04:52:47.919Z,664
2016-08-25T04:53:47.918Z,676
2016-08-25T04:54:47.942Z,688
2016-08-25T04:55:47.976Z,700
2016-08-25T04:56:47.917Z,712
2016-08-25T04:57:47.892Z,720
2016-08-25T04:58:47.882Z,728
2016-08-25T04:59:47.911Z,740
2016-08-25T05:00:47.910Z,752
2016-08-25T05:01:47.873Z,760
2016-08-25T05:02:47.875Z,772
2016-08-25T05:03:47.878Z,780
2016-08-25T05:04:47.878Z,788
2016-08-25T05:05:47.872Z,796
2016-08-25T05:06:47.852Z,804
2016-08-25T05:07:47.857Z,812
2016-08-25T05:08:47.862Z,824
2016-08-25T05:09:47.861Z,828
2016-08-25T05:10:47.827Z,840
2016-08-25T05:11:47.829Z,848
2016-08-25T05:12:47.835Z,856
2016-08-25T05:13:47.830Z,864
2016-08-25T05:14:47.841Z,872
2016-08-25T05:15:47.819Z,876
2016-08-25T05:16:47.813Z,888
2016-08-25T05:17:47.806Z,892
2016-08-25T05:18:47.819Z,896
2016-08-25T05:19:48.022Z,908
2016-08-25T05:20:47.790Z,912
2016-08-25T05:21:47.792Z,920
2016-08-25T05:22:47.777Z,928
2016-08-25T05:23:47.810Z,932
2016-08-25T05:24:47.795Z,944
2016-08-25T05:25:47.762Z,952
2016-08-25T05:26:47.763Z,956
2016-08-25T05:27:47.799Z,964
2016-08-25T05:28:47.770Z,968
2016-08-25T05:29:47.770Z,976
2016-08-25T05:30:47.766Z,988
2016-08-25T05:31:47.771Z,988
2016-08-25T05:32:47.757Z,1000
2016-08-25T05:33:47.748Z,1004
2016-08-25T05:34:47.738Z,1012
2016-08-25T05:35:47.740Z,1016
2016-08-25T05:36:47.732Z,1024
2016-08-25T05:37:47.718Z,1032
2016-08-25T05:38:47.725Z,1040
2016-08-25T05:39:48.654Z,1044
2016-08-25T05:40:47.732Z,1052
2016-08-25T05:41:47.705Z,1056
2016-08-25T05:42:47.698Z,1064
2016-08-25T05:43:47.705Z,1072
2016-08-25T05:44:47.758Z,1076
2016-08-25T05:45:47.700Z,1080
2016-08-25T05:46:47.715Z,1080
2016-08-25T05:47:47.704Z,1092
2016-08-25T05:48:47.702Z,1096
2016-08-25T05:49:47.692Z,1096
2016-08-25T05:50:47.708Z,1100
2016-08-25T05:51:47.692Z,1108
2016-08-25T05:52:48.491Z,1112
2016-08-25T05:53:47.689Z,1120
2016-08-25T05:54:47.658Z,1124
2016-08-25T05:55:47.658Z,1124
2016-08-25T05:56:47.678Z,1132
2016-08-25T05:57:47.660Z,1136
2016-08-25T05:58:47.659Z,1140
2016-08-25T05:59:47.870Z,1144
2016-08-25T06:00:47.625Z,1148
2016-08-25T06:01:47.646Z,1152
2016-08-25T06:02:47.640Z,1152
2016-08-25T06:03:47.627Z,1160
2016-08-25T06:04:47.653Z,1164
2016-08-25T06:05:47.658Z,1168
2016-08-25T06:06:47.612Z,1172
2016-08-25T06:07:47.622Z,1176
2016-08-25T06:08:47.605Z,1180
2016-08-25T06:09:47.627Z,1180
2016-08-25T06:10:47.634Z,1184
2016-08-25T06:11:47.626Z,1184
2016-08-25T06:12:47.819Z,1188
2016-08-25T06:13:47.589Z,1184
2016-08-25T06:14:47.614Z,1192
2016-08-25T06:15:47.596Z,1192
2016-08-25T06:16:47.585Z,1196
2016-08-25T06:17:47.624Z,1204
2016-08-25T06:18:47.623Z,1204
2016-08-25T06:19:47.596Z,1212
2016-08-25T06:20:47.581Z,1212
2016-08-25T06:21:47.786Z,1212
2016-08-25T06:22:47.579Z,1212
2016-08-25T06:23:47.574Z,1216
2016-08-25T06:24:47.598Z,1220
2016-08-25T06:25:48.258Z,1220
2016-08-25T06:26:47.566Z,1224
2016-08-25T06:27:47.567Z,1228
2016-08-25T06:28:47.566Z,1232
2016-08-25T06:29:48.333Z,1240
2016-08-25T06:30:47.574Z,1236
2016-08-25T06:31:47.572Z,1240
2016-08-25T06:32:47.564Z,1244
2016-08-25T06:33:47.569Z,1248
2016-08-25T06:34:47.569Z,1256
2016-08-25T06:35:47.531Z,1260
2016-08-25T06:36:47.556Z,1268
2016-08-25T06:37:47.564Z,1284
2016-08-25T06:38:47.546Z,1348
2016-08-25T06:39:47.528Z,1336
2016-08-25T06:40:47.519Z,2272
2016-08-25T06:41:48.229Z,3416
2016-08-25T06:42:47.503Z,4636
2016-08-25T06:43:47.509Z,3496
2016-08-25T06:44:47.952Z,5900
2016-08-25T06:45:47.539Z,9652
2016-08-25T06:46:47.513Z,7056
2016-08-25T06:47:47.510Z,8520
2016-08-25T06:48:47.543Z,11888
2016-08-25T06:49:47.515Z,12320
2016-08-25T06:50:47.497Z,5564
2016-08-25T06:51:48.229Z,3320
2016-08-25T06:52:47.513Z,3060
2016-08-25T06:53:47.507Z,2740
2016-08-25T06:54:47.492Z,2516
2016-08-25T06:55:47.496Z,2344
2016-08-25T06:56:47.521Z,2228
2016-08-25T06:57:47.493Z,2136
2016-08-25T06:58:47.510Z,2052
2016-08-25T06:59:47.513Z,1984
2016-08-25T07:00:47.482Z,1908
2016-08-25T07:01:47.503Z,1840
2016-08-25T07:02:47.518Z,1756
2016-08-25T07:03:47.529Z,1728
2016-08-25T07:04:47.487Z,1712
2016-08-25T07:05:48.205Z,1696
2016-08-25T07:06:47.489Z,1696
2016-08-25T07:07:47.481Z,1688
2016-08-25T07:08:47.492Z,1680
2016-08-25T07:09:47.499Z,1676
2016-08-25T07:10:47.499Z,1660
2016-08-25T07:11:47.560Z,1628
2016-08-25T07:12:48.208Z,1632
2016-08-25T07:13:47.493Z,1640
2016-08-25T07:14:48.235Z,1636
2016-08-25T07:15:47.479Z,1624
2016-08-25T07:16:48.906Z,1620
2016-08-25T07:17:47.521Z,1616
2016-08-25T07:18:47.511Z,1620
2016-08-25T07:19:47.506Z,1624
2016-08-25T07:20:47.484Z,1624
2016-08-25T07:21:47.509Z,1624
2016-08-25T07:22:47.471Z,1636
2016-08-25T07:23:47.483Z,1644
2016-08-25T07:24:47.526Z,1652
2016-08-25T07:25:47.486Z,1652
2016-08-25T07:26:47.501Z,1664
2016-08-25T07:27:47.496Z,1656
2016-08-25T07:28:47.535Z,1668
2016-08-25T07:29:47.481Z,1680
2016-08-25T07:30:47.481Z,1676
2016-08-25T07:31:47.524Z,1676
2016-08-25T07:32:47.480Z,1684
2016-08-25T07:33:47.494Z,1688
2016-08-25T07:34:47.509Z,1688
2016-08-25T07:35:47.483Z,1688
2016-08-25T07:36:47.762Z,1692
2016-08-25T07:37:47.501Z,1692
2016-08-25T07:38:47.506Z,1688
2016-08-25T07:39:47.508Z,1696
2016-08-25T07:40:47.552Z,1696
2016-08-25T07:41:47.525Z,1688
2016-08-25T07:42:47.501Z,1692
2016-08-25T07:43:47.510Z,1692
2016-08-25T07:44:47.511Z,1696
2016-08-25T07:45:47.521Z,1696
2016-08-25T07:46:47.521Z,1700
2016-08-25T07:47:47.507Z,1700
2016-08-25T07:48:47.504Z,1700
2016-08-25T07:49:47.513Z,1696
2016-08-25T07:50:48.217Z,1696
2016-08-25T07:51:47.498Z,1696
2016-08-25T07:52:47.519Z,1696
2016-08-25T07:53:47.528Z,1692
2016-08-25T07:54:47.514Z,1688
2016-08-25T07:55:47.520Z,1688
2016-08-25T07:56:47.516Z,1688
2016-08-25T07:57:47.516Z,1692
2016-08-25T07:58:47.515Z,1688
2016-08-25T07:59:47.551Z,1688
2016-08-25T08:00:47.576Z,1684
2016-08-25T08:01:48.349Z,1692
2016-08-25T08:02:47.520Z,1684
2016-08-25T08:03:48.258Z,1676
2016-08-25T08:04:47.529Z,1680
2016-08-25T08:05:47.515Z,1672
2016-08-25T08:06:47.527Z,1672
2016-08-25T08:07:47.580Z,1668
2016-08-25T08:08:47.532Z,1668
2016-08-25T08:09:47.526Z,1660
2016-08-25T08:10:47.525Z,1664
2016-08-25T08:11:47.546Z,1660
2016-08-25T08:12:47.717Z,1656
2016-08-25T08:13:47.567Z,1652
2016-08-25T08:14:47.550Z,1644
2016-08-25T08:15:47.536Z,1648
2016-08-25T08:16:47.555Z,1652
2016-08-25T08:17:47.544Z,1648
2016-08-25T08:18:47.548Z,1640
2016-08-25T08:19:47.554Z,1640
2016-08-25T08:20:47.553Z,1640
2016-08-25T08:21:48.351Z,1640
2016-08-25T08:22:47.537Z,1640
2016-08-25T08:23:47.576Z,1624
2016-08-25T08:24:47.552Z,1620
2016-08-25T08:25:47.543Z,1624
2016-08-25T08:26:47.559Z,1624
2016-08-25T08:27:47.554Z,1628
2016-08-25T08:28:47.590Z,1628
2016-08-25T08:29:47.586Z,1624
2016-08-25T08:30:47.554Z,1624
2016-08-25T08:31:47.561Z,1628
2016-08-25T08:32:47.588Z,1632
2016-08-25T08:33:47.597Z,1632
2016-08-25T08:34:47.568Z,1632
2016-08-25T08:35:47.589Z,1632
2016-08-25T08:36:47.594Z,1632
2016-08-25T08:37:47.611Z,1628
2016-08-25T08:38:47.599Z,1632
2016-08-25T08:39:47.576Z,1628
2016-08-25T08:40:47.587Z,1632
2016-08-25T08:41:47.593Z,1628
2016-08-25T08:42:47.630Z,1632
2016-08-25T08:43:47.613Z,1632
2016-08-25T08:44:47.582Z,1636
2016-08-25T08:45:47.598Z,1636
2016-08-25T08:46:47.663Z,1636
2016-08-25T08:47:47.614Z,1636
2016-08-25T08:48:47.588Z,1628
2016-08-25T08:49:47.612Z,1620
2016-08-25T08:50:47.593Z,1616
2016-08-25T08:51:47.596Z,1616
2016-08-25T08:52:47.593Z,1612
2016-08-25T08:53:48.487Z,1616
2016-08-25T08:54:47.609Z,1616
2016-08-25T08:55:47.629Z,1616
2016-08-25T08:56:47.606Z,1620
2016-08-25T08:57:47.608Z,1604
2016-08-25T08:58:47.623Z,1596
2016-08-25T08:59:47.629Z,1592
2016-08-25T09:00:47.618Z,1596
2016-08-25T09:01:47.626Z,1608
2016-08-25T09:02:47.611Z,1616
2016-08-25T09:03:47.629Z,1616
2016-08-25T09:04:47.638Z,1612
2016-08-25T09:05:47.635Z,1608
2016-08-25T09:06:47.635Z,1612
2016-08-25T09:07:47.657Z,1608
2016-08-25T09:08:47.641Z,1612
2016-08-25T09:09:47.633Z,1612
2016-08-25T09:10:47.627Z,1616
2016-08-25T09:11:47.665Z,1616
2016-08-25T09:12:48.646Z,1616
2016-08-25T09:13:47.648Z,1616
2016-08-25T09:14:47.644Z,1616
2016-08-25T09:15:47.672Z,1620
2016-08-25T09:16:47.694Z,1616
2016-08-25T09:17:47.670Z,1612
2016-08-25T09:18:47.686Z,1604
2016-08-25T09:19:47.663Z,1608
2016-08-25T09:20:47.664Z,1612
2016-08-25T09:21:47.668Z,1616
2016-08-25T09:22:47.683Z,1612
2016-08-25T09:23:47.687Z,1600
2016-08-25T09:24:47.659Z,1596
2016-08-25T09:25:47.666Z,1600
2016-08-25T09:26:47.677Z,1604
2016-08-25T09:27:47.699Z,1608
2016-08-25T09:28:47.668Z,1608
2016-08-25T09:29:47.674Z,1612
2016-08-25T09:30:47.706Z,1612
2016-08-25T09:31:47.739Z,1608
2016-08-25T09:32:47.708Z,1608
2016-08-25T09:33:47.693Z,1604
2016-08-25T09:34:47.690Z,1604
2016-08-25T09:35:47.699Z,1600
2016-08-25T09:36:47.692Z,1600
2016-08-25T09:37:47.726Z,1600
2016-08-25T09:38:47.734Z,1592
2016-08-25T09:39:47.724Z,1592
2016-08-25T09:40:47.719Z,1588
2016-08-25T09:41:47.707Z,1592
2016-08-25T09:42:47.732Z,1596
2016-08-25T09:43:47.732Z,1596
2016-08-25T09:44:47.732Z,1592
2016-08-25T09:45:47.739Z,1596
2016-08-25T09:46:47.713Z,1592
2016-08-25T09:47:47.729Z,1584
2016-08-25T09:48:47.760Z,1580
2016-08-25T09:49:47.726Z,1572
2016-08-25T09:50:47.725Z,1568
2016-08-25T09:51:47.760Z,1568
2016-08-25T09:52:47.753Z,1572
2016-08-25T09:53:47.756Z,1568
2016-08-25T09:54:47.762Z,1568
2016-08-25T09:55:47.770Z,1572
2016-08-25T09:56:47.771Z,1576
2016-08-25T09:57:48.642Z,1580
2016-08-25T09:58:47.751Z,1580
2016-08-25T09:59:47.778Z,1580
2016-08-25T10:00:47.788Z,1584
2016-08-25T10:01:47.802Z,1580
2016-08-25T10:02:47.784Z,1576
2016-08-25T10:03:47.782Z,1576
2016-08-25T10:04:47.775Z,1568
2016-08-25T10:05:47.783Z,1564
2016-08-25T10:06:47.791Z,1564
2016-08-25T10:07:47.813Z,1564
2016-08-25T10:08:47.785Z,1552
2016-08-25T10:09:47.937Z,1552
2016-08-25T10:10:47.813Z,1548
2016-08-25T10:11:47.823Z,1544
2016-08-25T10:12:48.661Z,1552
2016-08-25T10:13:48.657Z,1548
2016-08-25T10:14:47.829Z,1544
2016-08-25T10:15:47.850Z,1552
2016-08-25T10:16:47.818Z,1556
2016-08-25T10:17:47.816Z,1552
2016-08-25T10:18:47.834Z,1560
2016-08-25T10:19:47.819Z,1556
2016-08-25T10:20:47.827Z,1552
2016-08-25T10:21:47.857Z,1548
2016-08-25T10:22:47.838Z,1548
2016-08-25T10:23:47.845Z,1544
2016-08-25T10:24:47.836Z,1544
2016-08-25T10:25:47.873Z,1540
2016-08-25T10:26:47.829Z,1544
2016-08-25T10:27:47.842Z,1552
2016-08-25T10:28:47.853Z,1564
2016-08-25T10:29:47.843Z,1572
2016-08-25T10:30:47.903Z,1596
2016-08-25T10:31:47.856Z,1596
2016-08-25T10:32:47.893Z,1588
2016-08-25T10:33:47.890Z,1588
2016-08-25T10:34:47.884Z,1576
2016-08-25T10:35:47.875Z,1568
2016-08-25T10:36:47.861Z,1556
2016-08-25T10:37:47.909Z,1552
2016-08-25T10:38:47.889Z,1560
2016-08-25T10:39:47.865Z,1556
2016-08-25T10:40:47.876Z,1556
2016-08-25T10:41:47.883Z,1544
2016-08-25T10:42:47.905Z,1552
2016-08-25T10:43:47.905Z,1548
2016-08-25T10:44:47.902Z,1552
2016-08-25T10:45:47.900Z,1552
2016-08-25T10:46:47.893Z,1500
2016-08-25T10:47:47.921Z,1552
2016-08-25T10:48:47.938Z,1536
2016-08-25T10:49:47.923Z,1544
2016-08-25T10:50:47.890Z,1544
2016-08-25T10:51:47.932Z,1532
2016-08-25T10:52:48.687Z,1536
2016-08-25T10:53:47.917Z,1536
2016-08-25T10:54:47.954Z,1536
2016-08-25T10:55:47.954Z,1536
2016-08-25T10:56:47.951Z,1532
2016-08-25T10:57:47.948Z,1540
2016-08-25T10:58:47.924Z,1536
2016-08-25T10:59:47.943Z,1536
2016-08-25T11:00:47.957Z,1528
2016-08-25T11:01:47.937Z,1536
2016-08-25T11:02:48.693Z,1536
2016-08-25T11:03:48.369Z,1536
2016-08-25T11:04:47.961Z,1524
2016-08-25T11:05:47.944Z,1528
2016-08-25T11:06:47.955Z,1532
2016-08-25T11:07:47.945Z,1532
2016-08-25T11:08:47.962Z,1532
2016-08-25T11:09:47.989Z,1532
2016-08-25T11:10:47.988Z,1536
2016-08-25T11:11:47.979Z,1528
2016-08-25T11:12:47.985Z,1532
2016-08-25T11:13:47.981Z,1528
2016-08-25T11:14:47.975Z,1532
2016-08-25T11:15:48.004Z,1528
2016-08-25T11:16:47.979Z,1532
2016-08-25T11:17:48.026Z,1532
2016-08-25T11:18:48.003Z,1532
2016-08-25T11:19:47.997Z,1528
2016-08-25T11:20:48.009Z,1540
2016-08-25T11:21:48.033Z,1536
2016-08-25T11:22:48.007Z,1536
2016-08-25T11:23:48.011Z,1536
2016-08-25T11:24:48.042Z,1536
2016-08-25T11:25:48.025Z,1536
2016-08-25T11:26:48.191Z,1532
2016-08-25T11:27:48.180Z,1528
2016-08-25T11:28:48.172Z,1532
2016-08-25T11:29:48.029Z,1520
2016-08-25T11:30:48.033Z,1524
2016-08-25T11:31:48.174Z,1516
2016-08-25T11:32:48.913Z,1512
2016-08-25T11:33:48.162Z,1508
2016-08-25T11:34:48.159Z,1508
2016-08-25T11:35:48.173Z,1504
2016-08-25T11:36:48.159Z,1504
2016-08-25T11:37:48.181Z,1500
2016-08-25T11:38:48.176Z,1500
2016-08-25T11:39:48.184Z,1496
2016-08-25T11:40:48.195Z,1496
2016-08-25T11:41:48.176Z,1496
2016-08-25T11:42:48.184Z,1496
2016-08-25T11:43:48.199Z,1500
2016-08-25T11:45:48.616Z,1496
2016-08-25T11:46:48.308Z,1492
2016-08-25T11:47:48.322Z,1488
2016-08-25T11:48:48.321Z,1484
2016-08-25T11:49:48.328Z,1484
2016-08-25T11:50:48.328Z,1488
2016-08-25T11:51:49.752Z,1488
2016-08-25T11:52:48.319Z,1480
2016-08-25T11:53:48.311Z,1484
2016-08-25T11:54:48.377Z,1484
2016-08-25T11:55:48.349Z,1472
2016-08-25T11:56:48.395Z,1476
2016-08-25T11:57:48.471Z,1472
2016-08-25T11:58:48.305Z,1468
2016-08-25T11:59:48.350Z,1468
2016-08-25T12:00:48.358Z,1472
2016-08-25T12:01:48.303Z,1464
2016-08-25T12:02:48.321Z,1464
2016-08-25T12:03:48.508Z,1456
2016-08-25T12:04:48.505Z,1456
2016-08-25T12:05:48.503Z,1452
2016-08-25T12:06:48.317Z,1448
2016-08-25T12:07:48.334Z,1448
2016-08-25T12:08:48.340Z,1448
2016-08-25T12:09:48.481Z,1448
2016-08-25T12:10:48.354Z,1448
2016-08-25T12:12:03.827Z,1452
2016-08-25T12:12:48.588Z,1452
2016-08-25T12:13:48.894Z,1452
2016-08-25T12:14:48.483Z,1456
2016-08-25T12:15:48.485Z,1456
2016-08-25T12:16:48.505Z,1460
2016-08-25T12:17:48.467Z,1468
2016-08-25T12:18:48.464Z,1464
2016-08-25T12:19:48.549Z,1464
2016-08-25T12:20:48.533Z,1464
2016-08-25T12:21:48.590Z,1464
2016-08-25T12:22:48.505Z,1460
2016-08-25T12:23:48.501Z,1456
2016-08-25T12:24:48.508Z,1452
2016-08-25T12:25:48.552Z,1448
2016-08-25T12:26:48.454Z,1448
2016-08-25T12:27:48.439Z,1448
2016-08-25T12:28:48.438Z,1448
2016-08-25T12:29:48.475Z,1448
2016-08-25T12:30:48.449Z,1448
2016-08-25T12:31:48.461Z,1448
2016-08-25T12:32:48.514Z,1452
2016-08-25T12:33:48.480Z,1452
2016-08-25T12:34:48.509Z,1452
2016-08-25T12:35:48.489Z,1448
2016-08-25T12:36:48.501Z,1440
2016-08-25T12:37:48.541Z,1440
2016-08-25T12:38:48.511Z,1444
2016-08-25T12:39:48.447Z,1444
2016-08-25T12:40:48.501Z,1440
2016-08-25T12:41:48.505Z,1436
2016-08-25T12:42:48.483Z,1440
2016-08-25T12:43:48.498Z,1444
2016-08-25T12:44:48.542Z,1444
2016-08-25T12:45:48.476Z,1448
2016-08-25T12:46:48.554Z,1448
2016-08-25T12:47:48.548Z,1448
2016-08-25T12:48:48.484Z,1444
2016-08-25T12:49:48.485Z,1448
2016-08-25T12:50:48.551Z,1452
2016-08-25T12:51:48.487Z,1452
2016-08-25T12:52:48.500Z,1456
2016-08-25T12:53:48.513Z,1456
2016-08-25T12:54:48.506Z,1456
2016-08-25T12:55:48.513Z,1452
2016-08-25T12:56:48.527Z,1452
2016-08-25T12:57:48.635Z,1452
2016-08-25T12:58:48.539Z,1452
2016-08-25T12:59:48.547Z,1448
2016-08-25T13:00:48.535Z,1456
2016-08-25T13:01:48.554Z,1452
2016-08-25T13:02:49.264Z,1456
2016-08-25T13:03:48.482Z,1460
2016-08-25T13:04:48.469Z,1460
2016-08-25T13:05:48.486Z,1456
2016-08-25T13:06:48.499Z,1452
2016-08-25T13:07:48.496Z,1456
2016-08-25T13:08:48.553Z,1456
2016-08-25T13:09:49.126Z,1456
2016-08-25T13:10:48.529Z,1460
2016-08-25T13:11:48.554Z,1460
2016-08-25T13:12:48.540Z,1460
2016-08-25T13:13:48.617Z,1464
2016-08-25T13:14:49.114Z,1464
2016-08-25T13:15:49.534Z,1468
2016-08-25T13:16:48.517Z,1468
2016-08-25T13:17:48.542Z,1472
2016-08-25T13:18:49.477Z,1472
2016-08-25T13:19:48.528Z,1480
2016-08-25T13:20:48.762Z,1476
2016-08-25T13:21:48.557Z,1476
2016-08-25T13:22:48.565Z,1484
2016-08-25T13:23:48.582Z,1480
2016-08-25T13:24:48.578Z,1480
2016-08-25T13:25:48.572Z,1480
2016-08-25T13:26:48.562Z,1480
2016-08-25T13:27:48.544Z,1484
2016-08-25T13:28:48.504Z,1480
2016-08-25T13:29:48.597Z,1480
2016-08-25T13:30:48.506Z,1480
2016-08-25T13:31:48.539Z,1484
2016-08-25T13:32:48.549Z,1476
2016-08-25T13:33:48.543Z,1484
2016-08-25T13:34:48.590Z,1480
2016-08-25T13:35:48.555Z,1484
2016-08-25T13:36:48.553Z,1488
2016-08-25T13:37:48.575Z,1492
2016-08-25T13:38:48.676Z,1496
2016-08-25T13:39:48.593Z,1488
2016-08-25T13:40:48.578Z,1484
2016-08-25T13:41:48.763Z,1484
2016-08-25T13:42:48.526Z,1476
2016-08-25T13:43:48.599Z,1476
2016-08-25T13:44:48.572Z,1476
2016-08-25T13:45:48.524Z,1472
2016-08-25T13:46:48.541Z,1472